Time;durP1;ratioP1;P1;durP2;ratioP2;P2;SDS_P1;SDS_P2;PMS_P1;PMS_P2;Temp;Humidity;BMP_temperature;BMP_pressure;BME280_temperature;BME280_humidity;BME280_pressure;Samples;Min_cycle;Max_cycle;Signal;HPM_P1;HPM_P2
2023/12/31 00:02:20;;;;;;;44.40;18.47;;;4.00;99.90;;;;;;4412540;28;660012;-74
2023/12/31 00:05:08;;;;;;;36.07;15.33;;;4.00;99.90;;;;;;4387659;28;659622;-74
2023/12/31 00:07:55;;;;;;;36.37;16.87;;;4.00;99.90;;;;;;4402565;28;660572;-74
2023/12/31 00:10:42;;;;;;;42.10;17.07;;;3.90;99.90;;;;;;4399300;28;660075;-74
2023/12/31 00:13:31;;;;;;;38.50;17.80;;;3.80;99.90;;;;;;4403086;28;659732;-74
2023/12/31 00:16:18;;;;;;;39.10;17.63;;;3.90;99.90;;;;;;4390128;28;660273;-74
2023/12/31 00:19:05;;;;;;;40.73;18.67;;;3.90;99.90;;;;;;4435814;28;659975;-74
2023/12/31 00:21:53;;;;;;;39.23;16.17;;;3.80;99.90;;;;;;4399576;28;660056;-74
2023/12/31 00:24:40;;;;;;;36.13;15.73;;;3.90;99.90;;;;;;4424040;28;660345;-73
2023/12/31 00:27:27;;;;;;;35.10;16.93;;;3.80;99.90;;;;;;4421855;28;660127;-75
2023/12/31 00:30:16;;;;;;;35.80;16.20;;;3.70;99.90;;;;;;4437252;28;660837;-74
2023/12/31 00:33:04;;;;;;;34.53;16.70;;;3.70;99.90;;;;;;4394968;28;659404;-74
2023/12/31 00:35:51;;;;;;;34.55;15.63;;;3.80;99.90;;;;;;4430049;28;659578;-74
2023/12/31 00:38:39;;;;;;;37.90;16.60;;;3.70;99.90;;;;;;4418775;28;659855;-74
2023/12/31 00:41:26;;;;;;;35.43;16.33;;;3.50;99.90;;;;;;4437017;28;659390;-74
2023/12/31 00:44:13;;;;;;;34.40;16.23;;;3.40;99.90;;;;;;4407894;28;659389;-74
2023/12/31 00:47:02;;;;;;;33.97;15.20;;;3.30;99.90;;;;;;4428712;28;659687;-73
2023/12/31 00:49:49;;;;;;;33.57;16.07;;;3.10;99.90;;;;;;4391015;28;659834;-74
2023/12/31 00:52:36;;;;;;;46.57;15.63;;;3.00;99.90;;;;;;4425509;28;659867;-74
2023/12/31 00:55:23;;;;;;;39.67;15.87;;;3.00;99.90;;;;;;4397646;28;660144;-74
2023/12/31 00:58:10;;;;;;;43.73;15.50;;;2.90;99.90;;;;;;4436687;28;660304;-74
2023/12/31 01:00:57;;;;;;;38.60;16.20;;;2.70;99.90;;;;;;4410272;28;659649;-75
2023/12/31 01:03:46;;;;;;;36.27;16.53;;;2.60;99.90;;;;;;4426313;28;659161;-74
2023/12/31 01:06:33;;;;;;;157.03;18.40;;;2.40;99.90;;;;;;4416400;28;659375;-75
2023/12/31 01:09:20;;;;;;;82.60;15.57;;;2.40;99.90;;;;;;4432279;28;661296;-74
2023/12/31 01:12:08;;;;;;;102.60;17.07;;;2.30;99.90;;;;;;4397992;28;660953;-74
2023/12/31 01:14:55;;;;;;;35.23;15.93;;;2.30;99.90;;;;;;4434254;28;661377;-74
2023/12/31 01:17:42;;;;;;;65.40;16.73;;;2.10;99.90;;;;;;4418156;28;659886;-75
2023/12/31 01:20:31;;;;;;;60.90;15.93;;;2.10;99.90;;;;;;4427183;28;660321;-74
2023/12/31 01:23:18;;;;;;;41.97;15.95;;;1.90;99.90;;;;;;4407166;28;659769;-73
2023/12/31 01:26:05;;;;;;;38.80;17.80;;;2.00;99.90;;;;;;4428366;28;660662;-73
2023/12/31 01:28:52;;;;;;;41.33;17.30;;;1.90;99.90;;;;;;4412453;28;660164;-74
2023/12/31 01:31:40;;;;;;;36.03;16.37;;;1.70;99.90;;;;;;4418434;28;661167;-74
2023/12/31 01:34:27;;;;;;;41.57;18.50;;;1.60;99.90;;;;;;4423647;28;660063;-74
2023/12/31 01:37:16;;;;;;;42.00;19.30;;;1.40;99.90;;;;;;4396995;28;660069;-74
2023/12/31 01:40:03;;;;;;;49.53;20.13;;;1.40;99.90;;;;;;4407944;28;659934;-74
2023/12/31 01:42:50;;;;;;;65.80;24.30;;;1.50;99.90;;;;;;4417108;28;659862;-74
2023/12/31 01:45:38;;;;;;;59.93;23.63;;;1.50;99.90;;;;;;4406165;28;659857;-74
2023/12/31 01:48:25;;;;;;;57.50;23.73;;;1.40;99.90;;;;;;4414766;28;660684;-74
2023/12/31 01:51:12;;;;;;;44.93;20.27;;;1.30;99.90;;;;;;4408824;28;660317;-74
2023/12/31 01:54:02;;;;;;;55.47;25.03;;;1.20;99.90;;;;;;4428352;28;660365;-74
2023/12/31 01:56:49;;;;;;;60.63;24.67;;;1.10;99.90;;;;;;4395382;28;660010;-74
2023/12/31 01:59:37;;;;;;;72.97;30.65;;;1.10;99.90;;;;;;4434434;28;659362;-73
2023/12/31 02:02:24;;;;;;;77.87;30.23;;;1.10;99.90;;;;;;4411420;28;659522;-73
2023/12/31 02:05:12;;;;;;;80.33;30.23;;;1.20;99.90;;;;;;4432712;28;659696;-74
2023/12/31 02:07:59;;;;;;;76.30;30.60;;;1.30;99.90;;;;;;4412882;28;660646;-73
2023/12/31 02:10:48;;;;;;;62.13;26.53;;;1.10;99.90;;;;;;4425586;28;658939;-73
2023/12/31 02:13:35;;;;;;;57.03;21.33;;;1.00;99.90;;;;;;4411422;28;659982;-74
2023/12/31 02:16:24;;;;;;;53.60;23.10;;;1.00;99.90;;;;;;4426751;28;659563;-74
2023/12/31 02:19:12;;;;;;;53.43;21.43;;;1.00;99.90;;;;;;4424954;28;659681;-74
2023/12/31 02:22:00;;;;;;;52.10;22.63;;;1.00;99.90;;;;;;4430028;28;660561;-74
2023/12/31 02:24:48;;;;;;;50.90;21.50;;;1.00;99.90;;;;;;4420218;28;659288;-75
2023/12/31 02:27:37;;;;;;;53.10;21.38;;;0.80;99.90;;;;;;4431339;28;660094;-74
2023/12/31 02:30:26;;;;;;;45.07;19.53;;;0.70;99.90;;;;;;4400740;28;660424;-74
2023/12/31 02:33:13;;;;;;;45.97;21.67;;;0.60;99.90;;;;;;4411906;28;660075;-75
2023/12/31 02:36:00;;;;;;;52.10;19.53;;;0.50;99.90;;;;;;4429481;28;660298;-74
2023/12/31 02:38:47;;;;;;;47.63;21.17;;;0.50;99.90;;;;;;4421889;28;660036;-74
2023/12/31 02:41:35;;;;;;;52.23;20.83;;;0.60;99.90;;;;;;4432452;28;659502;-74
2023/12/31 02:44:23;;;;;;;52.43;21.60;;;0.40;99.90;;;;;;4426564;28;659102;-74
2023/12/31 02:47:11;;;;;;;52.15;23.30;;;0.50;99.90;;;;;;4418543;28;659738;-74
2023/12/31 02:49:58;;;;;;;62.97;23.00;;;0.40;99.90;;;;;;4409679;28;659967;-74
2023/12/31 02:52:46;;;;;;;52.97;22.27;;;0.40;99.90;;;;;;4429685;28;660557;-74
2023/12/31 02:55:33;;;;;;;59.07;24.03;;;0.30;99.90;;;;;;4417349;28;660106;-74
2023/12/31 02:58:20;;;;;;;57.37;23.93;;;0.40;99.90;;;;;;4434939;28;659385;-74
2023/12/31 03:01:09;;;;;;;60.72;24.90;;;0.50;99.90;;;;;;4425566;28;660341;-74
2023/12/31 03:03:56;;;;;;;55.60;23.70;;;0.50;99.90;;;;;;4445399;28;659680;-74
2023/12/31 03:06:43;;;;;;;58.97;24.17;;;0.30;99.90;;;;;;4424394;28;660047;-74
2023/12/31 03:09:30;;;;;;;57.30;23.83;;;0.20;99.90;;;;;;4430417;28;660151;-73
2023/12/31 03:12:17;;;;;;;59.03;25.27;;;0.20;99.90;;;;;;4398602;28;659532;-75
2023/12/31 03:15:05;;;;;;;55.53;23.40;;;0.20;99.90;;;;;;4436793;28;660508;-73
2023/12/31 03:17:54;;;;;;;65.70;25.20;;;0.30;99.90;;;;;;4424241;28;659867;-75
2023/12/31 03:20:41;;;;;;;65.73;28.23;;;0.20;99.90;;;;;;4443768;28;659587;-74
2023/12/31 03:23:28;;;;;;;73.15;31.15;;;0.00;99.90;;;;;;4410430;28;660417;-75
2023/12/31 03:26:16;;;;;;;76.07;29.90;;;0.00;99.90;;;;;;4441407;28;660206;-74
2023/12/31 03:29:03;;;;;;;74.27;29.83;;;0.00;99.90;;;;;;4408876;28;660511;-74
2023/12/31 03:31:50;;;;;;;60.03;27.80;;;0.10;99.90;;;;;;4431400;28;660801;-74
2023/12/31 03:34:39;;;;;;;72.93;28.97;;;0.00;99.90;;;;;;4411986;28;660187;-74
2023/12/31 03:37:26;;;;;;;57.80;24.33;;;0.00;99.90;;;;;;4430796;28;659743;-74
2023/12/31 03:40:13;;;;;;;54.92;20.65;;;-0.10;99.90;;;;;;4410809;28;659511;-75
2023/12/31 03:43:01;;;;;;;56.92;23.88;;;-0.10;99.90;;;;;;4424560;28;660222;-73
2023/12/31 03:45:48;;;;;;;52.53;22.87;;;-0.20;99.90;;;;;;4416677;28;660989;-75
2023/12/31 03:48:35;;;;;;;56.03;24.93;;;-0.20;99.90;;;;;;4425167;28;661192;-74
2023/12/31 03:51:25;;;;;;;62.43;25.53;;;-0.20;99.90;;;;;;4421594;28;660489;-75
2023/12/31 03:54:12;;;;;;;55.80;23.87;;;-0.30;99.90;;;;;;4413823;28;660345;-74
2023/12/31 03:56:59;;;;;;;77.10;30.27;;;-0.30;99.90;;;;;;4415418;28;661173;-74
2023/12/31 03:59:46;;;;;;;74.07;30.07;;;-0.30;99.90;;;;;;4431731;28;660287;-74
2023/12/31 04:02:33;;;;;;;87.83;31.30;;;-0.30;99.90;;;;;;4403514;28;660817;-75
2023/12/31 04:05:21;;;;;;;76.27;29.87;;;-0.30;99.90;;;;;;4427901;28;661129;-74
2023/12/31 04:08:09;;;;;;;79.03;30.77;;;-0.30;99.90;;;;;;4406983;28;661220;-74
2023/12/31 04:10:57;;;;;;;81.70;31.13;;;-0.20;99.90;;;;;;4426344;28;660961;-74
2023/12/31 04:13:44;;;;;;;66.80;26.93;;;-0.20;99.90;;;;;;4398347;28;661450;-74
2023/12/31 04:16:31;;;;;;;72.50;28.47;;;-0.20;99.90;;;;;;4420650;28;660129;-74
2023/12/31 04:19:18;;;;;;;81.77;31.00;;;0.00;99.90;;;;;;4406962;28;661037;-74
2023/12/31 04:22:06;;;;;;;65.63;28.92;;;-0.10;99.90;;;;;;4412520;28;659644;-74
2023/12/31 04:24:54;;;;;;;71.40;27.23;;;-0.20;99.90;;;;;;4398039;28;660792;-75
2023/12/31 04:27:44;;;;;;;60.30;23.90;;;-0.30;99.90;;;;;;4421019;28;660341;-74
2023/12/31 04:30:31;;;;;;;58.07;24.60;;;-0.40;99.90;;;;;;4393200;28;661985;-74
2023/12/31 04:33:18;;;;;;;57.10;23.20;;;-0.40;99.90;;;;;;4402374;28;660994;-74
2023/12/31 04:36:06;;;;;;;49.70;20.93;;;-0.30;99.90;;;;;;4419116;28;660691;-74
2023/12/31 04:38:54;;;;;;;52.93;20.57;;;-0.40;99.90;;;;;;4395451;28;660645;-74
2023/12/31 04:41:42;;;;;;;46.30;19.97;;;-0.30;99.90;;;;;;4427066;28;661470;-74
2023/12/31 04:44:29;;;;;;;49.78;21.50;;;-0.30;99.90;;;;;;4399001;28;660818;-74
2023/12/31 04:47:17;;;;;;;56.23;25.23;;;-0.40;99.90;;;;;;4416109;28;661472;-74
2023/12/31 04:50:04;;;;;;;63.57;25.50;;;-0.40;99.90;;;;;;4384611;28;660951;-74
2023/12/31 04:52:52;;;;;;;58.93;22.93;;;-0.30;99.90;;;;;;4417896;28;661608;-74
2023/12/31 04:55:39;;;;;;;59.07;23.70;;;-0.30;99.90;;;;;;4383340;28;660524;-74
2023/12/31 04:58:27;;;;;;;56.27;22.40;;;-0.30;99.90;;;;;;4426775;28;660727;-74
2023/12/31 05:01:15;;;;;;;47.42;21.17;;;-0.40;99.90;;;;;;4386110;28;660801;-74
2023/12/31 05:04:02;;;;;;;55.90;21.80;;;-0.40;99.90;;;;;;4418434;28;661432;-74
2023/12/31 05:06:49;;;;;;;58.57;23.60;;;-0.40;99.90;;;;;;4394417;28;661269;-74
2023/12/31 05:09:36;;;;;;;59.27;23.93;;;-0.50;99.90;;;;;;4427014;28;661191;-74
2023/12/31 05:12:23;;;;;;;47.30;20.70;;;-0.40;99.90;;;;;;4392403;28;660603;-74
2023/12/31 05:15:12;;;;;;;52.55;21.73;;;-0.40;99.90;;;;;;4407192;28;661101;-74
2023/12/31 05:17:59;;;;;;;54.97;21.67;;;-0.40;99.90;;;;;;4392709;28;661939;-73
2023/12/31 05:20:46;;;;;;;52.40;20.37;;;-0.40;99.90;;;;;;4429007;28;660497;-74
2023/12/31 05:23:33;;;;;;;45.20;19.30;;;-0.40;99.90;;;;;;4407384;28;661411;-74
2023/12/31 05:26:20;;;;;;;45.37;19.20;;;-0.50;99.90;;;;;;4429562;28;661133;-74
2023/12/31 05:29:08;;;;;;;45.57;19.30;;;-0.50;99.90;;;;;;4406107;28;660404;-75
2023/12/31 05:31:57;;;;;;;38.13;16.75;;;-0.40;99.90;;;;;;4419916;28;661581;-74
2023/12/31 05:34:44;;;;;;;297.23;24.13;;;-0.40;99.90;;;;;;4399777;28;662083;-74
2023/12/31 05:37:32;;;;;;;35.93;16.43;;;-0.40;99.90;;;;;;4423360;28;661629;-74
2023/12/31 05:40:19;;;;;;;40.47;17.20;;;-0.40;99.90;;;;;;4405815;28;661108;-74
2023/12/31 05:43:07;;;;;;;34.90;15.47;;;-0.30;99.90;;;;;;4424998;28;660696;-74
2023/12/31 05:45:54;;;;;;;37.30;16.03;;;-0.30;99.90;;;;;;4404986;28;662058;-74
2023/12/31 05:48:43;;;;;;;39.97;16.53;;;-0.30;99.90;;;;;;4423848;28;660673;-74
2023/12/31 05:51:30;;;;;;;45.90;16.57;;;-0.30;99.90;;;;;;4399412;28;661145;-74
2023/12/31 05:54:17;;;;;;;40.00;16.98;;;-0.30;99.90;;;;;;4406068;28;660695;-74
2023/12/31 05:57:05;;;;;;;38.57;16.50;;;-0.30;99.90;;;;;;4426081;28;661798;-74
2023/12/31 05:59:53;;;;;;;38.65;16.75;;;-0.30;99.90;;;;;;4408755;28;660842;-74
2023/12/31 06:02:40;;;;;;;42.60;15.77;;;-0.30;99.90;;;;;;4424645;28;660927;-73
2023/12/31 06:05:29;;;;;;;37.23;14.70;;;-0.20;99.90;;;;;;4399039;28;660685;-75
2023/12/31 06:08:16;;;;;;;37.93;14.67;;;-0.30;99.90;;;;;;4421067;28;660694;-74
2023/12/31 06:11:03;;;;;;;33.27;14.20;;;-0.30;99.90;;;;;;4399126;28;660585;-74
2023/12/31 06:13:51;;;;;;;39.50;15.77;;;-0.20;99.90;;;;;;4418386;28;661092;-74
2023/12/31 06:16:38;;;;;;;37.60;15.60;;;-0.30;99.90;;;;;;4402872;28;660457;-75
2023/12/31 06:19:25;;;;;;;43.20;16.10;;;-0.30;99.90;;;;;;4425313;28;661367;-74
2023/12/31 06:22:14;;;;;;;41.55;16.88;;;-0.40;99.90;;;;;;4409076;28;661022;-74
2023/12/31 06:25:01;;;;;;;35.53;16.63;;;-0.30;99.90;;;;;;4428316;28;660721;-74
2023/12/31 06:27:49;;;;;;;46.80;18.17;;;-0.10;99.90;;;;;;4401624;28;661177;-74
2023/12/31 06:30:37;;;;;;;52.53;20.63;;;0.00;99.90;;;;;;4430874;28;662146;-74
2023/12/31 06:33:25;;;;;;;34.90;16.63;;;-0.10;99.90;;;;;;4399231;28;660470;-73
2023/12/31 06:36:13;;;;;;;49.17;19.30;;;-0.20;99.90;;;;;;4406780;28;661124;-74
2023/12/31 06:39:02;;;;;;;32.20;14.57;;;-0.20;99.90;;;;;;4430613;28;661519;-74
2023/12/31 06:41:50;;;;;;;31.93;12.93;;;-0.20;99.90;;;;;;4409071;28;661360;-74
2023/12/31 06:44:37;;;;;;;32.27;14.60;;;-0.10;99.90;;;;;;4418823;28;661141;-74
2023/12/31 06:47:25;;;;;;;28.73;14.03;;;0.00;99.90;;;;;;4426024;28;662123;-74
2023/12/31 06:50:12;;;;;;;29.97;13.40;;;0.00;99.90;;;;;;4415163;28;659808;-75
2023/12/31 06:52:59;;;;;;;29.00;13.07;;;0.00;99.90;;;;;;4333957;28;659575;-74
2023/12/31 06:55:47;;;;;;;35.87;13.33;;;0.10;99.90;;;;;;4360303;28;659205;-74
2023/12/31 06:58:36;;;;;;;37.70;13.07;;;0.10;99.90;;;;;;4338985;28;659898;-74
2023/12/31 07:01:23;;;;;;;30.23;13.00;;;0.20;99.90;;;;;;4341123;28;659886;-74
2023/12/31 07:04:10;;;;;;;40.43;15.07;;;0.40;99.90;;;;;;4353890;28;660115;-75
2023/12/31 07:06:58;;;;;;;39.33;15.47;;;0.50;99.90;;;;;;4361313;28;659759;-74
2023/12/31 07:09:45;;;;;;;35.37;15.40;;;0.60;99.90;;;;;;4397888;28;661095;-75
2023/12/31 07:12:34;;;;;;;36.53;15.73;;;0.70;99.90;;;;;;4401939;28;659773;-73
2023/12/31 07:15:21;;;;;;;29.07;13.70;;;0.70;99.90;;;;;;4426532;28;659669;-74
2023/12/31 07:18:08;;;;;;;31.03;13.57;;;0.70;99.90;;;;;;4389314;28;659611;-74
2023/12/31 07:20:56;;;;;;;29.70;12.73;;;0.90;99.90;;;;;;4431706;28;660002;-75
2023/12/31 07:23:44;;;;;;;33.13;13.83;;;1.10;99.90;;;;;;4397186;28;659699;-75
2023/12/31 07:26:31;;;;;;;28.30;14.07;;;1.30;99.90;;;;;;4421333;28;659968;-75
2023/12/31 07:29:19;;;;;;;31.70;14.67;;;1.40;99.90;;;;;;4401065;28;659867;-75
2023/12/31 07:32:07;;;;;;;30.13;15.37;;;1.50;99.90;;;;;;4409071;28;660023;-76
2023/12/31 07:34:54;;;;;;;41.00;16.83;;;1.70;99.90;;;;;;4396976;28;660804;-74
2023/12/31 07:37:41;;;;;;;35.58;16.48;;;1.80;99.90;;;;;;4416901;28;659595;-75
2023/12/31 07:40:29;;;;;;;39.17;17.60;;;2.00;99.90;;;;;;4400140;28;659908;-76
2023/12/31 07:43:17;;;;;;;35.00;16.37;;;2.20;99.90;;;;;;4408677;28;660212;-77
2023/12/31 07:46:06;;;;;;;47.07;19.63;;;2.40;99.90;;;;;;4404229;28;660408;-77
2023/12/31 07:48:53;;;;;;;43.20;19.80;;;2.50;99.90;;;;;;4397906;28;659441;-77
2023/12/31 07:51:40;;;;;;;49.93;21.17;;;2.50;99.90;;;;;;4420126;28;660579;-78
2023/12/31 07:54:28;;;;;;;47.88;22.65;;;2.50;99.90;;;;;;4405376;28;659865;-76
2023/12/31 07:57:15;;;;;;;39.07;20.83;;;2.60;99.90;;;;;;4421544;28;660123;-79
2023/12/31 08:00:04;;;;;;;41.97;20.87;;;2.70;99.90;;;;;;4421934;28;659384;-76
2023/12/31 08:02:53;;;;;;;41.37;21.33;;;2.80;99.90;;;;;;4418533;28;659144;-78
2023/12/31 08:05:40;;;;;;;43.83;20.17;;;2.80;99.90;;;;;;4398600;28;661011;-78
2023/12/31 08:08:27;;;;;;;42.57;21.57;;;2.90;99.90;;;;;;4409009;28;660068;-76
2023/12/31 08:11:15;;;;;;;41.77;21.50;;;3.00;99.90;;;;;;4423777;28;660291;-77
2023/12/31 08:14:03;;;;;;;48.33;27.00;;;3.10;99.90;;;;;;4411395;28;660074;-77
2023/12/31 08:16:50;;;;;;;46.97;26.10;;;3.10;99.90;;;;;;4416477;28;660105;-78
2023/12/31 08:19:39;;;;;;;47.87;26.57;;;3.20;99.90;;;;;;4392922;28;659688;-76
2023/12/31 08:22:27;;;;;;;58.47;32.23;;;3.30;99.90;;;;;;4409362;28;659572;-78
2023/12/31 08:25:14;;;;;;;64.20;34.23;;;3.30;99.90;;;;;;4397670;28;659798;-78
2023/12/31 08:28:01;;;;;;;57.47;32.07;;;3.50;99.90;;;;;;4422068;28;659898;-77
2023/12/31 08:30:48;;;;;;;43.33;25.37;;;3.50;99.90;;;;;;4401017;28;659550;-78
2023/12/31 08:33:36;;;;;;;40.47;21.13;;;3.70;99.90;;;;;;4424341;28;659722;-78
2023/12/31 08:36:24;;;;;;;39.90;20.43;;;3.80;99.90;;;;;;4394722;28;659647;-77
2023/12/31 08:39:12;;;;;;;36.13;19.93;;;3.90;99.90;;;;;;4407874;28;660193;-77
2023/12/31 08:41:59;;;;;;;30.00;16.10;;;3.90;99.90;;;;;;4403645;28;660353;-77
2023/12/31 08:44:46;;;;;;;28.53;15.33;;;4.00;99.90;;;;;;4415845;28;659870;-76
2023/12/31 08:47:33;;;;;;;28.00;15.43;;;4.00;99.90;;;;;;4409903;28;659969;-76
2023/12/31 08:50:21;;;;;;;33.10;14.87;;;4.10;99.90;;;;;;4423496;28;659885;-77
2023/12/31 08:53:09;;;;;;;33.03;16.33;;;4.20;99.90;;;;;;4394309;28;660022;-76
2023/12/31 08:55:56;;;;;;;30.93;16.03;;;4.20;99.90;;;;;;4410130;28;659632;-76
2023/12/31 08:58:44;;;;;;;28.53;15.37;;;4.30;99.90;;;;;;4384912;28;659491;-77
2023/12/31 09:01:31;;;;;;;31.17;16.57;;;4.40;99.90;;;;;;4435652;28;659718;-77
2023/12/31 09:04:19;;;;;;;35.60;17.80;;;4.60;99.90;;;;;;4411842;28;660549;-77
2023/12/31 09:07:06;;;;;;;41.00;18.47;;;5.00;99.90;;;;;;4424474;28;659539;-77
2023/12/31 09:09:54;;;;;;;39.83;18.90;;;5.60;99.90;;;;;;4400193;28;659538;-76
2023/12/31 09:12:42;;;;;;;33.77;17.60;;;6.30;99.90;;;;;;4420433;28;659823;-77
2023/12/31 09:15:29;;;;;;;29.13;15.50;;;7.00;99.90;;;;;;4398054;28;660503;-76
2023/12/31 09:18:17;;;;;;;22.07;11.63;;;7.50;99.90;;;;;;4418578;28;659854;-78
2023/12/31 09:21:05;;;;;;;23.80;10.37;;;7.90;99.90;;;;;;4399311;28;660479;-77
2023/12/31 09:23:52;;;;;;;20.43;8.60;;;8.20;99.90;;;;;;4418547;28;659665;-77
2023/12/31 09:26:40;;;;;;;16.17;7.67;;;8.50;99.90;;;;;;4394317;28;659403;-77
2023/12/31 09:29:27;;;;;;;14.15;6.03;;;8.80;99.90;;;;;;4404598;28;658887;-75
2023/12/31 09:32:15;;;;;;;16.40;7.43;;;9.10;99.90;;;;;;4426306;28;660030;-75
2023/12/31 09:35:02;;;;;;;12.10;6.90;;;9.50;99.90;;;;;;4428967;28;659451;-78
2023/12/31 09:37:49;;;;;;;17.63;6.70;;;9.70;99.90;;;;;;4393474;28;659114;-77
2023/12/31 09:40:37;;;;;;;16.87;10.07;;;9.90;99.90;;;;;;4423289;28;658718;-78
2023/12/31 09:43:25;;;;;;;9.70;5.20;;;9.80;99.90;;;;;;4401467;28;659942;-77
2023/12/31 09:46:12;;;;;;;14.23;6.63;;;10.00;99.90;;;;;;4401792;28;657999;-76
2023/12/31 09:49:01;;;;;;;10.57;6.30;;;10.70;99.90;;;;;;4418635;28;659981;-77
2023/12/31 09:51:48;;;;;;;8.10;4.00;;;11.20;99.90;;;;;;4401348;28;659482;-77
2023/12/31 09:54:38;;;;;;;8.07;4.30;;;11.50;99.90;;;;;;4416443;28;659779;-77
2023/12/31 09:57:25;;;;;;;8.07;3.70;;;11.40;99.90;;;;;;4400546;28;659540;-77
2023/12/31 10:00:15;;;;;;;7.63;3.43;;;11.50;99.90;;;;;;4403386;28;658663;-75
2023/12/31 10:03:02;;;;;;;8.00;3.53;;;11.40;99.90;;;;;;4575455;28;659268;-77
2023/12/31 10:05:50;;;;;;;9.30;4.00;;;11.90;99.90;;;;;;5065835;28;20198;-76
2023/12/31 10:08:38;;;;;;;8.80;4.30;;;12.40;99.90;;;;;;5070820;28;20729;-78
2023/12/31 10:11:25;;;;;;;12.50;4.87;;;12.20;99.90;;;;;;5066841;28;20220;-78
2023/12/31 10:14:12;;;;;;;9.27;4.77;;;11.80;99.90;;;;;;5064208;28;20698;-78
2023/12/31 10:17:01;;;;;;;6.10;3.37;;;11.60;99.90;;;;;;5067282;28;20261;-78
2023/12/31 10:19:48;;;;;;;8.23;3.13;;;11.30;99.90;;;;;;5057408;28;20285;-77
2023/12/31 10:22:35;;;;;;;7.77;3.27;;;11.10;99.90;;;;;;5067262;28;20204;-78
2023/12/31 10:25:24;;;;;;;10.40;5.07;;;10.70;99.90;;;;;;5060961;28;20196;-77
2023/12/31 10:28:11;;;;;;;11.43;5.40;;;10.40;99.90;;;;;;5058968;28;20223;-78
2023/12/31 10:30:58;;;;;;;14.73;6.60;;;10.10;99.90;;;;;;5059713;28;20288;-77
2023/12/31 10:33:47;;;;;;;17.73;7.70;;;9.90;99.90;;;;;;5068596;28;20701;-78
2023/12/31 10:36:34;;;;;;;8.13;3.80;;;9.30;99.90;;;;;;5061107;28;20264;-76
2023/12/31 10:39:28;;;;;;;6.60;3.20;;;9.50;99.90;;;;;;5059459;28;20204;-77
2023/12/31 10:42:15;;;;;;;5.03;2.87;;;9.70;99.90;;;;;;5070316;28;20224;-77
2023/12/31 10:45:02;;;;;;;8.17;3.63;;;9.80;99.90;;;;;;5067494;28;20193;-77
2023/12/31 10:47:51;;;;;;;6.67;3.40;;;9.80;99.90;;;;;;5067078;28;20670;-77
2023/12/31 10:50:40;;;;;;;8.57;4.00;;;9.80;99.90;;;;;;5057983;28;20284;-77
2023/12/31 10:53:27;;;;;;;11.17;4.00;;;9.70;99.90;;;;;;5064135;28;20572;-78
2023/12/31 10:56:15;;;;;;;9.73;5.00;;;9.50;99.90;;;;;;5061856;28;20216;-78
2023/12/31 10:59:02;;;;;;;16.23;6.20;;;9.70;99.90;;;;;;5067220;28;20777;-78
2023/12/31 11:01:49;;;;;;;12.70;5.70;;;10.00;99.90;;;;;;5064914;28;20291;-78
2023/12/31 11:04:37;;;;;;;12.17;5.83;;;9.50;99.90;;;;;;5066668;28;20215;-77
2023/12/31 11:07:26;;;;;;;13.90;6.80;;;9.20;99.90;;;;;;5071365;28;20211;-78
2023/12/31 11:10:13;;;;;;;12.50;6.17;;;9.40;99.90;;;;;;5072324;28;20221;-79
2023/12/31 11:13:01;;;;;;;12.80;6.57;;;9.90;99.90;;;;;;5076148;28;20265;-79
2023/12/31 11:15:48;;;;;;;12.87;6.00;;;9.90;99.90;;;;;;5067407;28;20279;-79
2023/12/31 11:18:51;;;;;;;16.03;7.10;;;10.30;99.90;;;;;;5065648;28;20233;-79
2023/12/31 11:21:44;;;;;;;16.60;7.37;;;10.20;99.90;;;;;;5053724;28;20206;-78
2023/12/31 11:24:33;;;;;;;11.53;6.40;;;10.00;99.90;;;;;;5060634;28;20315;-79
2023/12/31 11:27:20;;;;;;;16.87;8.10;;;9.90;99.90;;;;;;5074753;28;20769;-79
2023/12/31 11:30:09;;;;;;;12.83;5.17;;;9.90;99.90;;;;;;5074144;28;20295;-80
2023/12/31 11:32:56;;;;;;;12.23;5.00;;;10.00;99.90;;;;;;5072052;28;20284;-78
2023/12/31 11:35:43;;;;;;;11.37;4.70;;;10.30;99.90;;;;;;5063700;28;20196;-78
2023/12/31 11:38:52;;;;;;;10.97;5.13;;;10.00;99.90;;;;;;5073543;28;20192;-78
2023/12/31 11:41:44;;;;;;;15.43;6.50;;;9.80;99.90;;;;;;5072655;28;20254;-78
2023/12/31 11:44:36;;;;;;;18.40;8.17;;;9.50;99.90;;;;;;5064209;28;20711;-78
2023/12/31 11:47:25;;;;;;;27.93;11.00;;;9.40;99.90;;;;;;5074684;28;20198;-78
2023/12/31 11:50:17;;;;;;;26.07;10.47;;;9.40;99.90;;;;;;5057985;28;20226;-78
2023/12/31 11:53:04;;;;;;;15.73;7.07;;;9.70;99.90;;;;;;5069024;28;20250;-78
2023/12/31 11:55:54;;;;;;;13.60;6.27;;;10.70;99.90;;;;;;5070813;28;20227;-78
2023/12/31 11:58:43;;;;;;;11.57;5.20;;;12.00;99.90;;;;;;5064551;28;20562;-78
2023/12/31 12:01:30;;;;;;;16.80;7.57;;;12.20;99.90;;;;;;5073199;28;20282;-78
2023/12/31 12:04:18;;;;;;;16.17;7.50;;;12.30;99.90;;;;;;5074364;28;20608;-78
2023/12/31 12:07:05;;;;;;;12.97;6.40;;;11.80;99.90;;;;;;5074348;28;20212;-77
2023/12/31 12:09:52;;;;;;;10.80;5.43;;;11.40;99.90;;;;;;5073788;28;20218;-78
2023/12/31 12:12:39;;;;;;;10.33;5.20;;;10.80;99.90;;;;;;5085580;28;20328;-78
2023/12/31 12:15:33;;;;;;;13.17;5.73;;;10.50;99.90;;;;;;5084658;28;20734;-77
2023/12/31 12:18:21;;;;;;;11.57;5.27;;;10.00;99.90;;;;;;5072980;28;20244;-77
2023/12/31 12:21:09;;;;;;;10.77;4.57;;;9.70;99.90;;;;;;5053764;28;20197;-77
2023/12/31 12:23:56;;;;;;;12.50;5.70;;;9.40;99.90;;;;;;5053543;28;20201;-77
2023/12/31 12:26:43;;;;;;;22.07;8.17;;;9.20;99.90;;;;;;5054290;28;20199;-77
2023/12/31 12:29:30;;;;;;;19.03;7.53;;;9.30;99.90;;;;;;5052563;28;20213;-77
2023/12/31 12:32:22;;;;;;;19.73;8.17;;;10.50;99.90;;;;;;5053236;28;20205;-77
2023/12/31 12:35:09;;;;;;;15.70;7.00;;;11.70;99.90;;;;;;5052819;28;20658;-77
2023/12/31 12:37:56;;;;;;;13.93;6.43;;;12.60;99.90;;;;;;5052356;28;20251;-77
2023/12/31 12:40:43;;;;;;;16.97;7.50;;;13.00;99.90;;;;;;5053091;28;20200;-77
2023/12/31 12:43:31;;;;;;;13.53;6.40;;;13.40;99.90;;;;;;5052597;28;20200;-78
2023/12/31 12:46:18;;;;;;;12.37;6.33;;;13.70;97.80;;;;;;5052870;28;20575;-78
2023/12/31 12:49:07;;;;;;;11.23;5.53;;;13.20;96.70;;;;;;5054362;28;20221;-77
2023/12/31 12:51:55;;;;;;;10.63;5.30;;;11.90;99.90;;;;;;5061011;28;20226;-77
2023/12/31 12:54:42;;;;;;;10.20;4.77;;;11.40;99.90;;;;;;5072776;28;20197;-77
2023/12/31 12:57:29;;;;;;;11.80;5.13;;;11.10;99.90;;;;;;5072813;28;20332;-77
2023/12/31 13:00:17;;;;;;;10.57;5.10;;;10.40;99.90;;;;;;5071436;28;20194;-77
2023/12/31 13:03:05;;;;;;;12.90;5.47;;;9.80;99.90;;;;;;5061196;28;20219;-78
2023/12/31 13:05:53;;;;;;;11.70;5.83;;;9.60;99.90;;;;;;5071824;28;20203;-77
2023/12/31 13:08:41;;;;;;;10.07;5.50;;;9.60;99.90;;;;;;5072575;28;20193;-77
2023/12/31 13:11:29;;;;;;;11.33;5.90;;;9.50;99.90;;;;;;5064856;28;20212;-77
2023/12/31 13:14:16;;;;;;;9.90;5.13;;;9.60;99.90;;;;;;5067964;28;20242;-77
2023/12/31 13:17:05;;;;;;;8.97;5.00;;;9.60;99.90;;;;;;5071567;28;20314;-77
2023/12/31 13:19:54;;;;;;;8.53;4.87;;;9.20;99.90;;;;;;5071914;28;20611;-78
2023/12/31 13:22:44;;;;;;;10.70;5.23;;;8.90;99.90;;;;;;5071795;28;20212;-77
2023/12/31 13:25:31;;;;;;;11.20;5.57;;;8.60;99.90;;;;;;5071600;28;20238;-77
2023/12/31 13:28:18;;;;;;;12.40;5.67;;;8.40;99.90;;;;;;5072690;28;20691;-77
2023/12/31 13:31:05;;;;;;;10.30;5.80;;;8.30;99.90;;;;;;5072651;28;20270;-77
2023/12/31 13:33:52;;;;;;;11.13;5.77;;;8.20;99.90;;;;;;5072514;28;20276;-77
2023/12/31 13:36:40;;;;;;;14.00;5.87;;;8.30;99.90;;;;;;5072025;28;20370;-77
2023/12/31 13:39:28;;;;;;;14.03;6.67;;;8.20;99.90;;;;;;5072857;28;20326;-77
2023/12/31 13:42:15;;;;;;;17.47;8.67;;;8.20;99.90;;;;;;5071789;28;20283;-77
2023/12/31 13:45:03;;;;;;;24.83;9.40;;;8.10;99.90;;;;;;5072502;28;20196;-77
2023/12/31 13:47:50;;;;;;;18.23;8.67;;;8.00;99.90;;;;;;5072305;28;20211;-77
2023/12/31 13:50:37;;;;;;;19.53;9.70;;;7.80;99.90;;;;;;5056982;28;20265;-77
2023/12/31 13:53:24;;;;;;;23.47;10.37;;;7.90;99.90;;;;;;5037391;28;20550;-78
2023/12/31 13:56:13;;;;;;;41.00;15.77;;;7.80;99.90;;;;;;5031785;28;20316;-77
2023/12/31 13:59:00;;;;;;;23.23;9.50;;;7.80;99.90;;;;;;5032254;28;20202;-77
2023/12/31 14:01:47;;;;;;;12.13;6.30;;;7.70;99.90;;;;;;5032169;28;20220;-77
2023/12/31 14:04:34;;;;;;;15.00;7.17;;;7.60;99.90;;;;;;5071685;28;20333;-78
2023/12/31 14:07:22;;;;;;;22.60;9.47;;;7.50;99.90;;;;;;5072148;28;20242;-78
2023/12/31 14:10:09;;;;;;;24.70;10.53;;;7.40;99.90;;;;;;5071645;28;20351;-77
2023/12/31 14:12:58;;;;;;;30.53;12.70;;;7.30;99.90;;;;;;5071530;28;20685;-78
2023/12/31 14:15:45;;;;;;;31.03;11.93;;;7.20;99.90;;;;;;5071022;28;20208;-77